sensor_id;sensor_type;location;lat;lon;timestamp;P1;durP1;ratioP1;P2;durP2;ratioP2
3207;SDS011;1616;52.394;9.756;2022-07-12T00:01:39;3.23;;;1.90;;
3207;SDS011;1616;52.394;9.756;2022-07-12T00:04:04;1.50;;;1.40;;
3207;SDS011;1616;52.394;9.756;2022-07-12T00:06:30;1.33;;;1.23;;
3207;SDS011;1616;52.394;9.756;2022-07-12T00:08:56;1.47;;;1.37;;
3207;SDS011;1616;52.394;9.756;2022-07-12T00:11:22;5.00;;;1.57;;
3207;SDS011;1616;52.394;9.756;2022-07-12T00:13:49;1.47;;;1.37;;
3207;SDS011;1616;52.394;9.756;2022-07-12T00:16:14;1.27;;;1.17;;
3207;SDS011;1616;52.394;9.756;2022-07-12T00:18:40;1.60;;;1.30;;
3207;SDS011;1616;52.394;9.756;2022-07-12T00:21:06;3.30;;;1.67;;
3207;SDS011;1616;52.394;9.756;2022-07-12T00:23:33;1.50;;;1.40;;
3207;SDS011;1616;52.394;9.756;2022-07-12T00:26:02;1.63;;;1.53;;
3207;SDS011;1616;52.394;9.756;2022-07-12T00:28:30;1.60;;;1.50;;
3207;SDS011;1616;52.394;9.756;2022-07-12T00:30:56;2.17;;;2.00;;
3207;SDS011;1616;52.394;9.756;2022-07-12T00:33:23;1.73;;;1.63;;
3207;SDS011;1616;52.394;9.756;2022-07-12T00:35:48;2.53;;;2.33;;
3207;SDS011;1616;52.394;9.756;2022-07-12T00:38:14;1.90;;;1.80;;
3207;SDS011;1616;52.394;9.756;2022-07-12T00:40:39;2.30;;;2.10;;
3207;SDS011;1616;52.394;9.756;2022-07-12T00:43:05;1.67;;;1.57;;
3207;SDS011;1616;52.394;9.756;2022-07-12T00:45:31;2.30;;;2.20;;
3207;SDS011;1616;52.394;9.756;2022-07-12T00:47:57;1.80;;;1.70;;
3207;SDS011;1616;52.394;9.756;2022-07-12T00:50:23;1.63;;;1.40;;
3207;SDS011;1616;52.394;9.756;2022-07-12T00:52:51;2.63;;;1.50;;
3207;SDS011;1616;52.394;9.756;2022-07-12T00:55:19;2.37;;;1.70;;
3207;SDS011;1616;52.394;9.756;2022-07-12T00:57:45;1.70;;;1.60;;
3207;SDS011;1616;52.394;9.756;2022-07-12T01:00:13;1.67;;;1.57;;
3207;SDS011;1616;52.394;9.756;2022-07-12T01:02:41;1.60;;;1.50;;
3207;SDS011;1616;52.394;9.756;2022-07-12T01:05:08;1.80;;;1.70;;
3207;SDS011;1616;52.394;9.756;2022-07-12T01:07:34;1.70;;;1.60;;
3207;SDS011;1616;52.394;9.756;2022-07-12T01:10:01;1.93;;;1.50;;
3207;SDS011;1616;52.394;9.756;2022-07-12T01:12:29;1.97;;;1.77;;
3207;SDS011;1616;52.394;9.756;2022-07-12T01:14:55;1.93;;;1.83;;
3207;SDS011;1616;52.394;9.756;2022-07-12T01:17:23;1.77;;;1.67;;
3207;SDS011;1616;52.394;9.756;2022-07-12T01:19:51;1.90;;;1.80;;
3207;SDS011;1616;52.394;9.756;2022-07-12T01:22:17;1.90;;;1.80;;
3207;SDS011;1616;52.394;9.756;2022-07-12T01:24:44;1.70;;;1.60;;
3207;SDS011;1616;52.394;9.756;2022-07-12T01:27:13;1.70;;;1.60;;
3207;SDS011;1616;52.394;9.756;2022-07-12T01:29:39;1.60;;;1.50;;
3207;SDS011;1616;52.394;9.756;2022-07-12T01:32:08;1.43;;;1.33;;
3207;SDS011;1616;52.394;9.756;2022-07-12T01:34:53;2.13;;;2.03;;
3207;SDS011;1616;52.394;9.756;2022-07-12T01:37:21;2.57;;;1.83;;
3207;SDS011;1616;52.394;9.756;2022-07-12T01:39:57;2.00;;;1.63;;
3207;SDS011;1616;52.394;9.756;2022-07-12T01:42:24;1.80;;;1.70;;
3207;SDS011;1616;52.394;9.756;2022-07-12T01:44:52;1.70;;;1.60;;
3207;SDS011;1616;52.394;9.756;2022-07-12T01:47:21;1.77;;;1.67;;
3207;SDS011;1616;52.394;9.756;2022-07-12T01:49:48;1.90;;;1.80;;
3207;SDS011;1616;52.394;9.756;2022-07-12T01:52:14;2.57;;;2.47;;
3207;SDS011;1616;52.394;9.756;2022-07-12T01:54:40;1.80;;;1.70;;
3207;SDS011;1616;52.394;9.756;2022-07-12T01:57:07;1.97;;;1.77;;
3207;SDS011;1616;52.394;9.756;2022-07-12T01:59:34;1.90;;;1.80;;
3207;SDS011;1616;52.394;9.756;2022-07-12T02:02:00;1.97;;;1.87;;
3207;SDS011;1616;52.394;9.756;2022-07-12T02:04:26;1.77;;;1.67;;
3207;SDS011;1616;52.394;9.756;2022-07-12T02:06:52;2.07;;;1.80;;
3207;SDS011;1616;52.394;9.756;2022-07-12T02:09:18;1.70;;;1.60;;
3207;SDS011;1616;52.394;9.756;2022-07-12T02:11:44;1.70;;;1.60;;
3207;SDS011;1616;52.394;9.756;2022-07-12T02:14:13;7.63;;;2.20;;
3207;SDS011;1616;52.394;9.756;2022-07-12T02:16:40;3.10;;;2.20;;
3207;SDS011;1616;52.394;9.756;2022-07-12T02:19:06;2.20;;;2.10;;
3207;SDS011;1616;52.394;9.756;2022-07-12T02:21:32;1.67;;;1.57;;
3207;SDS011;1616;52.394;9.756;2022-07-12T02:23:58;1.60;;;1.50;;
3207;SDS011;1616;52.394;9.756;2022-07-12T02:26:25;2.07;;;1.73;;
3207;SDS011;1616;52.394;9.756;2022-07-12T02:28:50;2.17;;;1.97;;
3207;SDS011;1616;52.394;9.756;2022-07-12T02:31:16;4.70;;;1.57;;
3207;SDS011;1616;52.394;9.756;2022-07-12T02:33:41;1.40;;;1.30;;
3207;SDS011;1616;52.394;9.756;2022-07-12T02:36:08;3.00;;;1.90;;
3207;SDS011;1616;52.394;9.756;2022-07-12T02:38:33;1.57;;;1.47;;
3207;SDS011;1616;52.394;9.756;2022-07-12T02:40:59;3.37;;;1.83;;
3207;SDS011;1616;52.394;9.756;2022-07-12T02:43:29;1.80;;;1.70;;
3207;SDS011;1616;52.394;9.756;2022-07-12T02:46:03;1.80;;;1.70;;
3207;SDS011;1616;52.394;9.756;2022-07-12T02:48:31;1.90;;;1.80;;
3207;SDS011;1616;52.394;9.756;2022-07-12T02:50:59;6.10;;;2.03;;
3207;SDS011;1616;52.394;9.756;2022-07-12T02:53:25;3.53;;;1.50;;
3207;SDS011;1616;52.394;9.756;2022-07-12T02:55:50;2.10;;;1.90;;
3207;SDS011;1616;52.394;9.756;2022-07-12T02:58:16;1.90;;;1.80;;
3207;SDS011;1616;52.394;9.756;2022-07-12T03:00:42;1.57;;;1.47;;
3207;SDS011;1616;52.394;9.756;2022-07-12T03:03:11;1.80;;;1.70;;
3207;SDS011;1616;52.394;9.756;2022-07-12T03:05:38;2.70;;;1.73;;
3207;SDS011;1616;52.394;9.756;2022-07-12T03:08:04;1.80;;;1.70;;
3207;SDS011;1616;52.394;9.756;2022-07-12T03:10:31;1.80;;;1.70;;
3207;SDS011;1616;52.394;9.756;2022-07-12T03:12:57;2.00;;;1.90;;
3207;SDS011;1616;52.394;9.756;2022-07-12T03:15:23;2.10;;;2.00;;
3207;SDS011;1616;52.394;9.756;2022-07-12T03:17:48;1.90;;;1.80;;
3207;SDS011;1616;52.394;9.756;2022-07-12T03:20:14;2.10;;;1.90;;
3207;SDS011;1616;52.394;9.756;2022-07-12T03:22:40;4.60;;;1.60;;
3207;SDS011;1616;52.394;9.756;2022-07-12T03:25:06;1.60;;;1.50;;
3207;SDS011;1616;52.394;9.756;2022-07-12T03:27:33;1.70;;;1.60;;
3207;SDS011;1616;52.394;9.756;2022-07-12T03:29:59;1.60;;;1.50;;
3207;SDS011;1616;52.394;9.756;2022-07-12T03:32:25;1.50;;;1.40;;
3207;SDS011;1616;52.394;9.756;2022-07-12T03:34:51;1.70;;;1.60;;
3207;SDS011;1616;52.394;9.756;2022-07-12T03:37:17;2.60;;;1.90;;
3207;SDS011;1616;52.394;9.756;2022-07-12T03:39:43;1.70;;;1.60;;
3207;SDS011;1616;52.394;9.756;2022-07-12T03:42:09;1.80;;;1.70;;
3207;SDS011;1616;52.394;9.756;2022-07-12T03:44:36;1.70;;;1.60;;
3207;SDS011;1616;52.394;9.756;2022-07-12T03:47:02;2.10;;;2.00;;
3207;SDS011;1616;52.394;9.756;2022-07-12T03:49:28;1.90;;;1.80;;
3207;SDS011;1616;52.394;9.756;2022-07-12T03:51:53;3.00;;;1.67;;
3207;SDS011;1616;52.394;9.756;2022-07-12T03:54:19;4.50;;;1.73;;
3207;SDS011;1616;52.394;9.756;2022-07-12T03:56:44;2.07;;;1.63;;
3207;SDS011;1616;52.394;9.756;2022-07-12T03:59:29;1.90;;;1.80;;
3207;SDS011;1616;52.394;9.756;2022-07-12T04:01:54;1.60;;;1.50;;
3207;SDS011;1616;52.394;9.756;2022-07-12T04:04:20;1.73;;;1.30;;
3207;SDS011;1616;52.394;9.756;2022-07-12T04:06:46;1.80;;;1.70;;
3207;SDS011;1616;52.394;9.756;2022-07-12T04:09:12;1.70;;;1.60;;
3207;SDS011;1616;52.394;9.756;2022-07-12T04:11:38;1.60;;;1.50;;
3207;SDS011;1616;52.394;9.756;2022-07-12T04:14:04;1.50;;;1.40;;
3207;SDS011;1616;52.394;9.756;2022-07-12T04:16:30;3.17;;;1.50;;
3207;SDS011;1616;52.394;9.756;2022-07-12T04:18:56;5.53;;;1.50;;
3207;SDS011;1616;52.394;9.756;2022-07-12T04:21:21;2.03;;;1.60;;
3207;SDS011;1616;52.394;9.756;2022-07-12T04:23:48;1.77;;;1.67;;
3207;SDS011;1616;52.394;9.756;2022-07-12T04:26:13;1.70;;;1.60;;
3207;SDS011;1616;52.394;9.756;2022-07-12T04:28:40;2.10;;;1.30;;
3207;SDS011;1616;52.394;9.756;2022-07-12T04:31:06;2.50;;;1.97;;
3207;SDS011;1616;52.394;9.756;2022-07-12T04:33:32;2.30;;;1.40;;
3207;SDS011;1616;52.394;9.756;2022-07-12T04:35:58;2.30;;;2.10;;
3207;SDS011;1616;52.394;9.756;2022-07-12T04:38:24;2.27;;;1.70;;
3207;SDS011;1616;52.394;9.756;2022-07-12T04:40:50;1.70;;;1.60;;
3207;SDS011;1616;52.394;9.756;2022-07-12T04:43:15;3.30;;;1.70;;
3207;SDS011;1616;52.394;9.756;2022-07-12T04:45:41;1.60;;;1.50;;
3207;SDS011;1616;52.394;9.756;2022-07-12T04:48:12;11.80;;;1.87;;
3207;SDS011;1616;52.394;9.756;2022-07-12T04:50:38;1.60;;;1.50;;
3207;SDS011;1616;52.394;9.756;2022-07-12T04:53:03;2.80;;;1.90;;
3207;SDS011;1616;52.394;9.756;2022-07-12T04:55:29;2.80;;;1.50;;
3207;SDS011;1616;52.394;9.756;2022-07-12T04:57:55;2.70;;;2.03;;
3207;SDS011;1616;52.394;9.756;2022-07-12T05:00:21;2.87;;;1.80;;
3207;SDS011;1616;52.394;9.756;2022-07-12T05:02:47;1.90;;;1.80;;
3207;SDS011;1616;52.394;9.756;2022-07-12T05:05:13;1.60;;;1.50;;
3207;SDS011;1616;52.394;9.756;2022-07-12T05:07:42;2.20;;;2.10;;
3207;SDS011;1616;52.394;9.756;2022-07-12T05:10:08;2.43;;;2.27;;
3207;SDS011;1616;52.394;9.756;2022-07-12T05:12:37;2.00;;;1.90;;
3207;SDS011;1616;52.394;9.756;2022-07-12T05:15:05;2.20;;;2.00;;
3207;SDS011;1616;52.394;9.756;2022-07-12T05:17:32;2.10;;;2.00;;
3207;SDS011;1616;52.394;9.756;2022-07-12T05:19:58;1.80;;;1.70;;
3207;SDS011;1616;52.394;9.756;2022-07-12T05:22:24;2.13;;;1.90;;
3207;SDS011;1616;52.394;9.756;2022-07-12T05:24:50;2.33;;;2.20;;
3207;SDS011;1616;52.394;9.756;2022-07-12T05:27:15;2.20;;;2.00;;
3207;SDS011;1616;52.394;9.756;2022-07-12T05:29:42;1.90;;;1.80;;
3207;SDS011;1616;52.394;9.756;2022-07-12T05:32:08;1.90;;;1.80;;
3207;SDS011;1616;52.394;9.756;2022-07-12T05:34:34;2.17;;;2.07;;
3207;SDS011;1616;52.394;9.756;2022-07-12T05:36:59;2.20;;;2.00;;
3207;SDS011;1616;52.394;9.756;2022-07-12T05:39:26;4.70;;;2.00;;
3207;SDS011;1616;52.394;9.756;2022-07-12T05:41:52;1.80;;;1.70;;
3207;SDS011;1616;52.394;9.756;2022-07-12T05:44:17;1.60;;;1.50;;
3207;SDS011;1616;52.394;9.756;2022-07-12T05:46:44;1.77;;;1.67;;
3207;SDS011;1616;52.394;9.756;2022-07-12T05:49:10;2.20;;;2.10;;
3207;SDS011;1616;52.394;9.756;2022-07-12T05:51:36;1.70;;;1.60;;
3207;SDS011;1616;52.394;9.756;2022-07-12T05:54:20;1.80;;;1.70;;
3207;SDS011;1616;52.394;9.756;2022-07-12T05:56:46;1.70;;;1.60;;
3207;SDS011;1616;52.394;9.756;2022-07-12T05:59:12;1.70;;;1.60;;
3207;SDS011;1616;52.394;9.756;2022-07-12T06:01:39;1.80;;;1.70;;
3207;SDS011;1616;52.394;9.756;2022-07-12T06:04:05;1.90;;;1.80;;
3207;SDS011;1616;52.394;9.756;2022-07-12T06:06:31;2.17;;;2.07;;
3207;SDS011;1616;52.394;9.756;2022-07-12T06:08:56;2.10;;;2.00;;
3207;SDS011;1616;52.394;9.756;2022-07-12T06:11:22;2.10;;;2.00;;
3207;SDS011;1616;52.394;9.756;2022-07-12T06:13:47;1.63;;;1.53;;
3207;SDS011;1616;52.394;9.756;2022-07-12T06:16:14;1.80;;;1.70;;
3207;SDS011;1616;52.394;9.756;2022-07-12T06:18:40;2.00;;;1.90;;
3207;SDS011;1616;52.394;9.756;2022-07-12T06:21:06;1.70;;;1.60;;
3207;SDS011;1616;52.394;9.756;2022-07-12T06:23:32;1.60;;;1.50;;
3207;SDS011;1616;52.394;9.756;2022-07-12T06:25:57;2.20;;;1.70;;
3207;SDS011;1616;52.394;9.756;2022-07-12T06:28:23;1.90;;;1.80;;
3207;SDS011;1616;52.394;9.756;2022-07-12T06:30:48;2.57;;;1.67;;
3207;SDS011;1616;52.394;9.756;2022-07-12T06:33:14;1.40;;;1.30;;
3207;SDS011;1616;52.394;9.756;2022-07-12T06:35:39;2.00;;;1.90;;
3207;SDS011;1616;52.394;9.756;2022-07-12T06:38:05;1.60;;;1.50;;
3207;SDS011;1616;52.394;9.756;2022-07-12T06:40:31;1.50;;;1.40;;
3207;SDS011;1616;52.394;9.756;2022-07-12T06:42:56;1.90;;;1.80;;
3207;SDS011;1616;52.394;9.756;2022-07-12T06:45:23;1.80;;;1.70;;
3207;SDS011;1616;52.394;9.756;2022-07-12T06:47:49;1.50;;;1.40;;
3207;SDS011;1616;52.394;9.756;2022-07-12T06:50:16;1.80;;;1.70;;
3207;SDS011;1616;52.394;9.756;2022-07-12T06:52:41;2.00;;;1.90;;
3207;SDS011;1616;52.394;9.756;2022-07-12T06:55:07;1.60;;;1.50;;
3207;SDS011;1616;52.394;9.756;2022-07-12T06:57:33;2.03;;;1.60;;
3207;SDS011;1616;52.394;9.756;2022-07-12T07:00:00;2.53;;;1.50;;
3207;SDS011;1616;52.394;9.756;2022-07-12T07:02:27;1.90;;;1.80;;
3207;SDS011;1616;52.394;9.756;2022-07-12T07:04:52;2.00;;;1.90;;
3207;SDS011;1616;52.394;9.756;2022-07-12T07:07:18;1.70;;;1.60;;
3207;SDS011;1616;52.394;9.756;2022-07-12T07:09:44;3.67;;;1.80;;
3207;SDS011;1616;52.394;9.756;2022-07-12T07:12:11;1.80;;;1.70;;
3207;SDS011;1616;52.394;9.756;2022-07-12T07:14:36;2.13;;;1.60;;
3207;SDS011;1616;52.394;9.756;2022-07-12T07:17:02;2.00;;;1.90;;
3207;SDS011;1616;52.394;9.756;2022-07-12T07:19:27;2.60;;;1.50;;
3207;SDS011;1616;52.394;9.756;2022-07-12T07:21:53;2.00;;;1.80;;
3207;SDS011;1616;52.394;9.756;2022-07-12T07:24:20;1.40;;;1.30;;
3207;SDS011;1616;52.394;9.756;2022-07-12T07:26:46;1.33;;;1.23;;
3207;SDS011;1616;52.394;9.756;2022-07-12T07:29:12;1.53;;;1.43;;
3207;SDS011;1616;52.394;9.756;2022-07-12T07:31:56;1.37;;;1.27;;
3207;SDS011;1616;52.394;9.756;2022-07-12T07:34:22;1.50;;;1.40;;
3207;SDS011;1616;52.394;9.756;2022-07-12T07:36:49;1.50;;;1.40;;
3207;SDS011;1616;52.394;9.756;2022-07-12T07:39:15;1.50;;;1.40;;
3207;SDS011;1616;52.394;9.756;2022-07-12T07:41:41;1.50;;;1.40;;
3207;SDS011;1616;52.394;9.756;2022-07-12T07:44:07;1.50;;;1.40;;
3207;SDS011;1616;52.394;9.756;2022-07-12T07:46:33;1.30;;;1.20;;
3207;SDS011;1616;52.394;9.756;2022-07-12T07:48:59;1.50;;;1.40;;
3207;SDS011;1616;52.394;9.756;2022-07-12T07:51:24;2.60;;;1.43;;
3207;SDS011;1616;52.394;9.756;2022-07-12T07:53:50;1.50;;;1.40;;
3207;SDS011;1616;52.394;9.756;2022-07-12T07:56:16;1.60;;;1.50;;
3207;SDS011;1616;52.394;9.756;2022-07-12T07:58:42;1.40;;;1.30;;
3207;SDS011;1616;52.394;9.756;2022-07-12T08:01:07;1.57;;;1.47;;
3207;SDS011;1616;52.394;9.756;2022-07-12T08:03:33;1.80;;;1.70;;
3207;SDS011;1616;52.394;9.756;2022-07-12T08:05:58;1.70;;;1.60;;
3207;SDS011;1616;52.394;9.756;2022-07-12T08:08:26;1.60;;;1.50;;
3207;SDS011;1616;52.394;9.756;2022-07-12T08:10:53;1.67;;;1.57;;
3207;SDS011;1616;52.394;9.756;2022-07-12T08:13:18;1.37;;;1.27;;
3207;SDS011;1616;52.394;9.756;2022-07-12T08:15:44;1.23;;;1.13;;
3207;SDS011;1616;52.394;9.756;2022-07-12T08:18:10;1.30;;;1.20;;
3207;SDS011;1616;52.394;9.756;2022-07-12T08:20:36;1.27;;;1.17;;
3207;SDS011;1616;52.394;9.756;2022-07-12T08:23:01;1.43;;;1.33;;
3207;SDS011;1616;52.394;9.756;2022-07-12T08:25:27;1.37;;;1.27;;
3207;SDS011;1616;52.394;9.756;2022-07-12T08:27:53;1.83;;;1.20;;
3207;SDS011;1616;52.394;9.756;2022-07-12T08:30:19;1.25;;;1.15;;
3207;SDS011;1616;52.394;9.756;2022-07-12T08:32:45;1.30;;;1.20;;
3207;SDS011;1616;52.394;9.756;2022-07-12T08:35:12;1.30;;;1.20;;
3207;SDS011;1616;52.394;9.756;2022-07-12T08:37:39;17.98;;;1.85;;
3207;SDS011;1616;52.394;9.756;2022-07-12T08:40:06;1.65;;;1.55;;
3207;SDS011;1616;52.394;9.756;2022-07-12T08:42:32;2.00;;;1.25;;
3207;SDS011;1616;52.394;9.756;2022-07-12T08:44:59;1.35;;;1.25;;
3207;SDS011;1616;52.394;9.756;2022-07-12T08:47:24;1.55;;;1.45;;
3207;SDS011;1616;52.394;9.756;2022-07-12T08:50:10;1.40;;;1.30;;
3207;SDS011;1616;52.394;9.756;2022-07-12T08:52:44;1.23;;;1.13;;
3207;SDS011;1616;52.394;9.756;2022-07-12T08:55:22;2.23;;;1.20;;
3207;SDS011;1616;52.394;9.756;2022-07-12T08:57:49;1.30;;;1.20;;
3207;SDS011;1616;52.394;9.756;2022-07-12T09:00:16;1.40;;;1.30;;
3207;SDS011;1616;52.394;9.756;2022-07-12T09:02:48;1.40;;;1.30;;
3207;SDS011;1616;52.394;9.756;2022-07-12T09:05:15;1.43;;;1.33;;
3207;SDS011;1616;52.394;9.756;2022-07-12T09:07:45;1.33;;;1.23;;
3207;SDS011;1616;52.394;9.756;2022-07-12T09:10:12;1.20;;;1.10;;
3207;SDS011;1616;52.394;9.756;2022-07-12T09:12:38;1.37;;;1.27;;
3207;SDS011;1616;52.394;9.756;2022-07-12T09:15:18;1.20;;;1.10;;
3207;SDS011;1616;52.394;9.756;2022-07-12T09:18:07;1.30;;;1.20;;
3207;SDS011;1616;52.394;9.756;2022-07-12T09:20:38;1.60;;;1.10;;
3207;SDS011;1616;52.394;9.756;2022-07-12T09:23:09;1.20;;;1.10;;
3207;SDS011;1616;52.394;9.756;2022-07-12T09:25:36;1.30;;;1.20;;
3207;SDS011;1616;52.394;9.756;2022-07-12T09:28:04;1.25;;;1.15;;
3207;SDS011;1616;52.394;9.756;2022-07-12T09:30:31;6.15;;;1.15;;
3207;SDS011;1616;52.394;9.756;2022-07-12T09:32:58;1.40;;;1.30;;
3207;SDS011;1616;52.394;9.756;2022-07-12T09:35:43;1.37;;;1.27;;
3207;SDS011;1616;52.394;9.756;2022-07-12T09:38:31;1.27;;;1.17;;
3207;SDS011;1616;52.394;9.756;2022-07-12T09:40:58;1.30;;;1.20;;
3207;SDS011;1616;52.394;9.756;2022-07-12T09:43:24;1.38;;;1.27;;
3207;SDS011;1616;52.394;9.756;2022-07-12T09:45:51;1.20;;;1.10;;
3207;SDS011;1616;52.394;9.756;2022-07-12T09:48:21;1.40;;;1.30;;
3207;SDS011;1616;52.394;9.756;2022-07-12T09:50:48;1.30;;;1.20;;
3207;SDS011;1616;52.394;9.756;2022-07-12T09:53:22;1.17;;;0.80;;
3207;SDS011;1616;52.394;9.756;2022-07-12T09:55:56;1.20;;;1.10;;
3207;SDS011;1616;52.394;9.756;2022-07-12T09:58:22;1.30;;;1.20;;
3207;SDS011;1616;52.394;9.756;2022-07-12T10:00:51;1.67;;;1.10;;
3207;SDS011;1616;52.394;9.756;2022-07-12T10:03:21;1.20;;;1.10;;
3207;SDS011;1616;52.394;9.756;2022-07-12T10:05:51;1.50;;;1.40;;
3207;SDS011;1616;52.394;9.756;2022-07-12T10:08:18;10.82;;;1.20;;
3207;SDS011;1616;52.394;9.756;2022-07-12T10:10:45;1.40;;;1.30;;
3207;SDS011;1616;52.394;9.756;2022-07-12T10:13:12;1.38;;;1.27;;
3207;SDS011;1616;52.394;9.756;2022-07-12T10:15:40;1.40;;;1.30;;
3207;SDS011;1616;52.394;9.756;2022-07-12T10:18:08;3.45;;;1.20;;
3207;SDS011;1616;52.394;9.756;2022-07-12T10:20:41;1.30;;;1.20;;
3207;SDS011;1616;52.394;9.756;2022-07-12T10:25:56;1.20;;;1.10;;
3207;SDS011;1616;52.394;9.756;2022-07-12T10:28:22;1.30;;;1.20;;
3207;SDS011;1616;52.394;9.756;2022-07-12T10:30:49;1.27;;;1.17;;
3207;SDS011;1616;52.394;9.756;2022-07-12T10:33:16;1.20;;;1.10;;
3207;SDS011;1616;52.394;9.756;2022-07-12T10:36:02;2.47;;;1.10;;
3207;SDS011;1616;52.394;9.756;2022-07-12T10:38:33;1.85;;;1.10;;
3207;SDS011;1616;52.394;9.756;2022-07-12T10:41:21;1.52;;;1.23;;
3207;SDS011;1616;52.394;9.756;2022-07-12T10:44:04;1.60;;;1.50;;
3207;SDS011;1616;52.394;9.756;2022-07-12T10:46:30;1.33;;;1.23;;
3207;SDS011;1616;52.394;9.756;2022-07-12T10:54:38;1.67;;;1.50;;
3207;SDS011;1616;52.394;9.756;2022-07-12T10:57:05;1.77;;;1.40;;
3207;SDS011;1616;52.394;9.756;2022-07-12T10:59:34;1.33;;;1.10;;
3207;SDS011;1616;52.394;9.756;2022-07-12T11:02:01;1.20;;;1.10;;
3207;SDS011;1616;52.394;9.756;2022-07-12T11:04:27;0.88;;;0.88;;
3207;SDS011;1616;52.394;9.756;2022-07-12T11:06:54;12.18;;;1.35;;
3207;SDS011;1616;52.394;9.756;2022-07-12T11:09:24;1.33;;;1.00;;
3207;SDS011;1616;52.394;9.756;2022-07-12T11:11:51;1.30;;;1.20;;
3207;SDS011;1616;52.394;9.756;2022-07-12T11:14:27;1.25;;;1.15;;
3207;SDS011;1616;52.394;9.756;2022-07-12T11:16:58;1.10;;;1.00;;
3207;SDS011;1616;52.394;9.756;2022-07-12T11:19:25;1.35;;;1.25;;
3207;SDS011;1616;52.394;9.756;2022-07-12T11:21:55;2.05;;;1.35;;
3207;SDS011;1616;52.394;9.756;2022-07-12T11:24:26;1.40;;;1.30;;
3207;SDS011;1616;52.394;9.756;2022-07-12T11:26:53;1.50;;;1.40;;
3207;SDS011;1616;52.394;9.756;2022-07-12T11:29:19;1.30;;;1.20;;
3207;SDS011;1616;52.394;9.756;2022-07-12T11:31:46;1.90;;;1.10;;
3207;SDS011;1616;52.394;9.756;2022-07-12T11:34:25;1.30;;;1.20;;
3207;SDS011;1616;52.394;9.756;2022-07-12T11:36:55;1.23;;;1.13;;
3207;SDS011;1616;52.394;9.756;2022-07-12T11:39:35;1.50;;;1.10;;
3207;SDS011;1616;52.394;9.756;2022-07-12T11:42:03;2.55;;;1.20;;
3207;SDS011;1616;52.394;9.756;2022-07-12T11:47:08;4.03;;;1.17;;
3207;SDS011;1616;52.394;9.756;2022-07-12T11:49:35;2.97;;;1.10;;
3207;SDS011;1616;52.394;9.756;2022-07-12T11:52:00;4.00;;;1.10;;
3207;SDS011;1616;52.394;9.756;2022-07-12T11:54:29;1.30;;;1.20;;
3207;SDS011;1616;52.394;9.756;2022-07-12T11:57:08;1.15;;;1.05;;
3207;SDS011;1616;52.394;9.756;2022-07-12T11:59:35;1.10;;;1.00;;
3207;SDS011;1616;52.394;9.756;2022-07-12T12:02:04;0.80;;;0.80;;
3207;SDS011;1616;52.394;9.756;2022-07-12T12:04:33;1.00;;;0.90;;
3207;SDS011;1616;52.394;9.756;2022-07-12T12:07:15;1.00;;;0.90;;
3207;SDS011;1616;52.394;9.756;2022-07-12T12:12:37;1.02;;;0.93;;
3207;SDS011;1616;52.394;9.756;2022-07-12T12:15:07;1.40;;;1.10;;
3207;SDS011;1616;52.394;9.756;2022-07-12T12:17:35;1.52;;;0.90;;
3207;SDS011;1616;52.394;9.756;2022-07-12T12:20:15;0.80;;;0.80;;
3207;SDS011;1616;52.394;9.756;2022-07-12T12:22:43;1.00;;;0.90;;
3207;SDS011;1616;52.394;9.756;2022-07-12T12:25:11;1.38;;;0.90;;
3207;SDS011;1616;52.394;9.756;2022-07-12T12:27:42;0.82;;;0.80;;
3207;SDS011;1616;52.394;9.756;2022-07-12T12:30:09;1.40;;;1.10;;
3207;SDS011;1616;52.394;9.756;2022-07-12T12:32:55;1.30;;;1.20;;
3207;SDS011;1616;52.394;9.756;2022-07-12T12:35:25;1.00;;;0.90;;
3207;SDS011;1616;52.394;9.756;2022-07-12T12:37:57;1.13;;;1.02;;
3207;SDS011;1616;52.394;9.756;2022-07-12T12:40:25;1.10;;;1.00;;
3207;SDS011;1616;52.394;9.756;2022-07-12T12:45:58;0.82;;;0.70;;
3207;SDS011;1616;52.394;9.756;2022-07-12T12:48:24;0.98;;;0.88;;
3207;SDS011;1616;52.394;9.756;2022-07-12T12:50:54;1.25;;;0.90;;
3207;SDS011;1616;52.394;9.756;2022-07-12T12:53:28;1.13;;;1.02;;
3207;SDS011;1616;52.394;9.756;2022-07-12T12:55:54;1.10;;;1.00;;
3207;SDS011;1616;52.394;9.756;2022-07-12T12:58:21;1.65;;;1.10;;
3207;SDS011;1616;52.394;9.756;2022-07-12T13:00:48;1.17;;;1.08;;
3207;SDS011;1616;52.394;9.756;2022-07-12T13:03:16;1.20;;;1.10;;
3207;SDS011;1616;52.394;9.756;2022-07-12T13:05:43;1.23;;;1.13;;
3207;SDS011;1616;52.394;9.756;2022-07-12T13:08:10;1.30;;;1.20;;
3207;SDS011;1616;52.394;9.756;2022-07-12T13:10:37;1.73;;;1.30;;
3207;SDS011;1616;52.394;9.756;2022-07-12T13:13:05;2.75;;;1.10;;
3207;SDS011;1616;52.394;9.756;2022-07-12T13:15:31;1.20;;;1.10;;
3207;SDS011;1616;52.394;9.756;2022-07-12T13:17:57;1.20;;;1.10;;
3207;SDS011;1616;52.394;9.756;2022-07-12T13:20:24;1.63;;;1.10;;
3207;SDS011;1616;52.394;9.756;2022-07-12T13:22:51;1.15;;;1.02;;
3207;SDS011;1616;52.394;9.756;2022-07-12T13:25:19;2.00;;;1.10;;
3207;SDS011;1616;52.394;9.756;2022-07-12T13:27:45;1.40;;;1.23;;
3207;SDS011;1616;52.394;9.756;2022-07-12T13:30:13;1.00;;;0.88;;
3207;SDS011;1616;52.394;9.756;2022-07-12T13:32:40;2.50;;;0.80;;
3207;SDS011;1616;52.394;9.756;2022-07-12T13:35:07;0.93;;;0.80;;
3207;SDS011;1616;52.394;9.756;2022-07-12T13:37:36;1.70;;;0.60;;
3207;SDS011;1616;52.394;9.756;2022-07-12T13:40:06;1.00;;;0.90;;
3207;SDS011;1616;52.394;9.756;2022-07-12T13:45:15;0.80;;;0.60;;
3207;SDS011;1616;52.394;9.756;2022-07-12T13:47:43;1.80;;;0.63;;
3207;SDS011;1616;52.394;9.756;2022-07-12T13:50:11;1.00;;;0.70;;
3207;SDS011;1616;52.394;9.756;2022-07-12T13:52:38;0.90;;;0.70;;
3207;SDS011;1616;52.394;9.756;2022-07-12T13:55:05;0.90;;;0.80;;
3207;SDS011;1616;52.394;9.756;2022-07-12T13:57:38;0.83;;;0.80;;
3207;SDS011;1616;52.394;9.756;2022-07-12T14:00:14;0.90;;;0.63;;
3207;SDS011;1616;52.394;9.756;2022-07-12T14:02:42;0.80;;;0.70;;
3207;SDS011;1616;52.394;9.756;2022-07-12T14:05:11;0.90;;;0.70;;
3207;SDS011;1616;52.394;9.756;2022-07-12T14:07:38;0.90;;;0.77;;
3207;SDS011;1616;52.394;9.756;2022-07-12T14:10:04;1.67;;;0.90;;
3207;SDS011;1616;52.394;9.756;2022-07-12T14:12:31;1.00;;;0.80;;
3207;SDS011;1616;52.394;9.756;2022-07-12T14:14:58;2.03;;;0.90;;
3207;SDS011;1616;52.394;9.756;2022-07-12T14:17:46;1.00;;;0.90;;
3207;SDS011;1616;52.394;9.756;2022-07-12T14:20:14;2.30;;;0.70;;
3207;SDS011;1616;52.394;9.756;2022-07-12T14:22:42;0.90;;;0.77;;
3207;SDS011;1616;52.394;9.756;2022-07-12T14:25:08;0.90;;;0.70;;
3207;SDS011;1616;52.394;9.756;2022-07-12T14:27:35;0.80;;;0.70;;
3207;SDS011;1616;52.394;9.756;2022-07-12T14:30:02;0.90;;;0.80;;
3207;SDS011;1616;52.394;9.756;2022-07-12T14:32:28;1.10;;;0.90;;
3207;SDS011;1616;52.394;9.756;2022-07-12T14:34:55;0.90;;;0.80;;
3207;SDS011;1616;52.394;9.756;2022-07-12T14:37:21;1.80;;;1.70;;
3207;SDS011;1616;52.394;9.756;2022-07-12T14:39:46;1.40;;;1.00;;
3207;SDS011;1616;52.394;9.756;2022-07-12T14:42:13;0.80;;;0.70;;
3207;SDS011;1616;52.394;9.756;2022-07-12T14:44:39;1.43;;;0.90;;
3207;SDS011;1616;52.394;9.756;2022-07-12T14:47:05;1.10;;;1.00;;
3207;SDS011;1616;52.394;9.756;2022-07-12T14:49:30;1.10;;;1.00;;
3207;SDS011;1616;52.394;9.756;2022-07-12T14:51:56;1.50;;;1.40;;
3207;SDS011;1616;52.394;9.756;2022-07-12T14:54:22;1.00;;;0.90;;
3207;SDS011;1616;52.394;9.756;2022-07-12T14:56:48;1.77;;;0.90;;
3207;SDS011;1616;52.394;9.756;2022-07-12T14:59:14;1.00;;;0.90;;
3207;SDS011;1616;52.394;9.756;2022-07-12T15:01:40;0.93;;;0.83;;
3207;SDS011;1616;52.394;9.756;2022-07-12T15:04:07;1.03;;;0.80;;
3207;SDS011;1616;52.394;9.756;2022-07-12T15:06:33;0.90;;;0.70;;
3207;SDS011;1616;52.394;9.756;2022-07-12T15:08:59;0.90;;;0.63;;
3207;SDS011;1616;52.394;9.756;2022-07-12T15:11:25;0.93;;;0.80;;
3207;SDS011;1616;52.394;9.756;2022-07-12T15:13:50;0.90;;;0.70;;
3207;SDS011;1616;52.394;9.756;2022-07-12T15:16:16;0.93;;;0.70;;
3207;SDS011;1616;52.394;9.756;2022-07-12T15:18:42;0.80;;;0.80;;
3207;SDS011;1616;52.394;9.756;2022-07-12T15:21:07;0.90;;;0.70;;
3207;SDS011;1616;52.394;9.756;2022-07-12T15:23:33;1.47;;;0.50;;
3207;SDS011;1616;52.394;9.756;2022-07-12T15:25:59;0.80;;;0.50;;
3207;SDS011;1616;52.394;9.756;2022-07-12T15:28:25;0.80;;;0.60;;
3207;SDS011;1616;52.394;9.756;2022-07-12T15:30:51;1.83;;;1.00;;
3207;SDS011;1616;52.394;9.756;2022-07-12T15:33:17;1.07;;;0.70;;
3207;SDS011;1616;52.394;9.756;2022-07-12T15:35:43;1.83;;;0.70;;
3207;SDS011;1616;52.394;9.756;2022-07-12T15:38:08;1.37;;;0.80;;